
Distance (Route):
Temperature : -17.5°C
Humidity : 0%
Pressure : 0hPa| Receiver | Frames | First received | Last received |
|---|---|---|---|
| KE7DJD | 109 | 2026-09-03 18:31:24 | 2026-09-03 19:10:13 |
| Receiver | Date | Latitude | Longitude | Direction | Speed | Altitude | Climb | Temperature | Humidity | Pressure | Voltage | Killtimer | Uptime | BKT | XDATA |
|---|---|---|---|---|---|---|---|---|---|---|---|---|---|---|---|
| KE7DJD | 2026-09-03 19:10:13 | 41.60433 | -114.77177 | 48° | 115km/h | 8126m | -6.2m/s | -17.5°C | 0% | 0hPa | 0V | 00:00:00 | 00:00:00 | 00:00:00 | |
| KE7DJD | 2026-09-03 19:09:47 | 41.59869 | -114.77884 | 46° | 119km/h | 8283m | -6.3m/s | -19.0°C | 0% | 0hPa | 0V | 00:00:00 | 00:00:00 | 00:00:00 | |
| KE7DJD | 2026-09-03 19:09:18 | 41.59247 | -114.78690 | 44° | 120km/h | 8455m | -6.2m/s | -20.8°C | 0% | 0hPa | 0V | 00:00:00 | 00:00:00 | 00:00:00 | |
| KE7DJD | 2026-09-03 19:08:57 | 41.58784 | -114.79259 | 43° | 119km/h | 8578m | -6.0m/s | -22.0°C | 0% | 0hPa | 0V | 00:00:00 | 00:00:00 | 00:00:00 | |
| KE7DJD | 2026-09-03 19:08:36 | 41.58310 | -114.79814 | 42° | 119km/h | 8700m | -5.7m/s | -23.1°C | 0% | 0hPa | 0V | 00:00:00 | 00:00:00 | 00:00:00 | |
| KE7DJD | 2026-09-03 19:08:12 | 41.57762 | -114.80412 | 38° | 122km/h | 8836m | -5.9m/s | -24.3°C | 0% | 0hPa | 0V | 00:00:00 | 00:00:00 | 00:00:00 | |
| KE7DJD | 2026-09-03 19:07:51 | 41.57242 | -114.80956 | 39° | 126km/h | 8958m | -5.9m/s | -25.3°C | 0% | 0hPa | 0V | 00:00:00 | 00:00:00 | 00:00:00 | |
| KE7DJD | 2026-09-03 19:07:31 | 41.56699 | -114.81499 | 37° | 131km/h | 9084m | -6.0m/s | -26.3°C | 0% | 0hPa | 0V | 00:00:00 | 00:00:00 | 00:00:00 | |
| KE7DJD | 2026-09-03 19:07:10 | 41.56173 | -114.82031 | 39° | 126km/h | 9207m | -6.1m/s | -27.3°C | 0% | 0hPa | 0V | 00:00:00 | 00:00:00 | 00:00:00 | |
| KE7DJD | 2026-09-03 19:06:50 | 41.55669 | -114.82634 | 45° | 130km/h | 9334m | -6.3m/s | -28.1°C | 0% | 0hPa | 0V | 00:00:00 | 00:00:00 | 00:00:00 | |
| KE7DJD | 2026-09-03 19:06:28 | 41.55179 | -114.83260 | 45° | 130km/h | 9458m | -5.8m/s | -29.2°C | 0% | 0hPa | 0V | 00:00:00 | 00:00:00 | 00:00:00 | |
| KE7DJD | 2026-09-03 19:06:08 | 41.54726 | -114.83855 | 46° | 124km/h | 9574m | -6.1m/s | -30.4°C | 0% | 0hPa | 0V | 00:00:00 | 00:00:00 | 00:00:00 | |
| KE7DJD | 2026-09-03 19:05:47 | 41.54260 | -114.84484 | 47° | 124km/h | 9698m | -5.7m/s | -31.6°C | 0% | 0hPa | 0V | 00:00:00 | 00:00:00 | 00:00:00 | |
| KE7DJD | 2026-09-03 19:05:27 | 41.53842 | -114.85076 | 46° | 115km/h | 9814m | -5.6m/s | -32.6°C | 0% | 0hPa | 0V | 00:00:00 | 00:00:00 | 00:00:00 | |
| KE7DJD | 2026-09-03 19:05:07 | 41.53409 | -114.85664 | 46° | 117km/h | 9932m | -5.8m/s | -32.9°C | 0% | 0hPa | 0V | 00:00:00 | 00:00:00 | 00:00:00 | |
| KE7DJD | 2026-09-03 19:04:46 | 41.52982 | -114.86250 | 47° | 124km/h | 10049m | -5.8m/s | -33.4°C | 0% | 0hPa | 0V | 00:00:00 | 00:00:00 | 00:00:00 | |
| KE7DJD | 2026-09-03 19:04:26 | 41.52528 | -114.86848 | 44° | 120km/h | 10171m | -5.8m/s | -34.0°C | 0% | 0hPa | 0V | 00:00:00 | 00:00:00 | 00:00:00 | |
| KE7DJD | 2026-09-03 19:04:05 | 41.52092 | -114.87411 | 45° | 117km/h | 10288m | -5.9m/s | -35.2°C | 0% | 0hPa | 0V | 00:00:00 | 00:00:00 | 00:00:00 | |
| KE7DJD | 2026-09-03 19:03:45 | 41.51622 | -114.87984 | 44° | 119km/h | 10410m | -5.9m/s | -36.2°C | 0% | 0hPa | 0V | 00:00:00 | 00:00:00 | 00:00:00 | |
| KE7DJD | 2026-09-03 19:03:24 | 41.51166 | -114.88519 | 43° | 122km/h | 10527m | -5.9m/s | -37.4°C | 0% | 0hPa | 0V | 00:00:00 | 00:00:00 | 00:00:00 | |
| KE7DJD | 2026-09-03 19:03:04 | 41.50686 | -114.89078 | 43° | 120km/h | 10650m | -5.9m/s | -38.5°C | 0% | 0hPa | 0V | 00:00:00 | 00:00:00 | 00:00:00 | |
| KE7DJD | 2026-09-03 19:02:23 | 41.49758 | -114.90109 | 39° | 115km/h | 10893m | -6.1m/s | -40.0°C | 0% | 0hPa | 0V | 00:00:00 | 00:00:00 | 00:00:00 | |
| KE7DJD | 2026-09-03 19:02:02 | 41.49289 | -114.90596 | 41° | 119km/h | 11012m | -6.2m/s | -41.0°C | 0% | 0hPa | 0V | 00:00:00 | 00:00:00 | 00:00:00 | |
| KE7DJD | 2026-09-03 19:01:42 | 41.48807 | -114.91123 | 43° | 117km/h | 11138m | -6.0m/s | -41.9°C | 0% | 0hPa | 0V | 00:00:00 | 00:00:00 | 00:00:00 | |
| KE7DJD | 2026-09-03 19:01:21 | 41.48363 | -114.91650 | 45° | 117km/h | 11258m | -5.9m/s | -42.6°C | 0% | 0hPa | 0V | 00:00:00 | 00:00:00 | 00:00:00 | |
| KE7DJD | 2026-09-03 19:01:01 | 41.47921 | -114.92241 | 48° | 119km/h | 11387m | -6.2m/s | -43.6°C | 0% | 0hPa | 0V | 00:00:00 | 00:00:00 | 00:00:00 | |
| KE7DJD | 2026-09-03 19:00:40 | 41.47514 | -114.92853 | 49° | 113km/h | 11517m | -6.0m/s | -44.7°C | 0% | 0hPa | 0V | 00:00:00 | 00:00:00 | 00:00:00 | |
| KE7DJD | 2026-09-03 19:00:19 | 41.47131 | -114.93401 | 46° | 115km/h | 11641m | -6.1m/s | -45.3°C | 0% | 0hPa | 0V | 00:00:00 | 00:00:00 | 00:00:00 | |
| KE7DJD | 2026-09-03 18:59:58 | 41.46697 | -114.93938 | 44° | 113km/h | 11770m | -5.9m/s | -45.8°C | 0% | 0hPa | 0V | 00:00:00 | 00:00:00 | 00:00:00 | |
| KE7DJD | 2026-09-03 18:59:38 | 41.46280 | -114.94428 | 42° | 113km/h | 11893m | -6.1m/s | -46.9°C | 0% | 0hPa | 0V | 00:00:00 | 00:00:00 | 00:00:00 | |
| KE7DJD | 2026-09-03 18:59:18 | 41.45835 | -114.94963 | 45° | 117km/h | 12022m | -5.9m/s | -47.7°C | 0% | 0hPa | 0V | 00:00:00 | 00:00:00 | 00:00:00 | |
| KE7DJD | 2026-09-03 18:58:57 | 41.45433 | -114.95525 | 48° | 113km/h | 12143m | -5.8m/s | -47.3°C | 0% | 0hPa | 0V | 00:00:00 | 00:00:00 | 00:00:00 | |
| KE7DJD | 2026-09-03 18:58:37 | 41.45050 | -114.96097 | 50° | 108km/h | 12269m | -6.1m/s | -46.6°C | 0% | 0hPa | 0V | 00:00:00 | 00:00:00 | 00:00:00 | |
| KE7DJD | 2026-09-03 18:58:16 | 41.44678 | -114.96623 | 52° | 110km/h | 12391m | -6.3m/s | -45.7°C | 0% | 0hPa | 0V | 00:00:00 | 00:00:00 | 00:00:00 | |
| KE7DJD | 2026-09-03 18:57:56 | 41.44327 | -114.97267 | 54° | 111km/h | 12521m | -6.5m/s | -45.1°C | 0% | 0hPa | 0V | 00:00:00 | 00:00:00 | 00:00:00 | |
| KE7DJD | 2026-09-03 18:57:35 | 41.44015 | -114.97836 | 56° | 100km/h | 12649m | -6.3m/s | -44.9°C | 0% | 0hPa | 0V | 00:00:00 | 00:00:00 | 00:00:00 | |
| KE7DJD | 2026-09-03 18:57:15 | 41.43759 | -114.98393 | 62° | 91km/h | 12789m | -6.9m/s | -44.3°C | 0% | 0hPa | 0V | 00:00:00 | 00:00:00 | 00:00:00 | |
| KE7DJD | 2026-09-03 18:56:53 | 41.43515 | -114.98926 | 57° | 89km/h | 12937m | -7.4m/s | -45.0°C | 0% | 0hPa | 0V | 00:00:00 | 00:00:00 | 00:00:00 | |
| KE7DJD | 2026-09-03 18:56:32 | 41.43268 | -114.99405 | 57° | 80km/h | 13092m | -7.5m/s | -45.9°C | 0% | 0hPa | 0V | 00:00:00 | 00:00:00 | 00:00:00 | |
| KE7DJD | 2026-09-03 18:56:12 | 41.43004 | -114.99849 | 50° | 82km/h | 13249m | -7.3m/s | -47.1°C | 0% | 0hPa | 0V | 00:00:00 | 00:00:00 | 00:00:00 | |
| KE7DJD | 2026-09-03 18:55:51 | 41.42705 | -115.00292 | 51° | 88km/h | 13409m | -7.6m/s | -48.4°C | 0% | 0hPa | 0V | 00:00:00 | 00:00:00 | 00:00:00 | |
| KE7DJD | 2026-09-03 18:55:30 | 41.42425 | -115.00746 | 54° | 82km/h | 13565m | -7.6m/s | -49.2°C | 0% | 0hPa | 0V | 00:00:00 | 00:00:00 | 00:00:00 | |
| KE7DJD | 2026-09-03 18:55:10 | 41.42159 | -115.01230 | 61° | 82km/h | 13732m | -7.9m/s | -48.8°C | 0% | 0hPa | 0V | 00:00:00 | 00:00:00 | 00:00:00 | |
| KE7DJD | 2026-09-03 18:54:49 | 41.41962 | -115.01715 | 61° | 82km/h | 13889m | -7.7m/s | -49.4°C | 0% | 0hPa | 0V | 00:00:00 | 00:00:00 | 00:00:00 | |
| KE7DJD | 2026-09-03 18:54:29 | 41.41712 | -115.02198 | 54° | 86km/h | 14052m | -7.5m/s | -49.7°C | 0% | 0hPa | 0V | 00:00:00 | 00:00:00 | 00:00:00 | |
| KE7DJD | 2026-09-03 18:54:08 | 41.41401 | -115.02699 | 53° | 91km/h | 14213m | -7.7m/s | -49.9°C | 0% | 0hPa | 0V | 00:00:00 | 00:00:00 | 00:00:00 | |
| KE7DJD | 2026-09-03 18:53:47 | 41.41112 | -115.03243 | 57° | 108km/h | 14368m | -7.8m/s | -50.1°C | 0% | 0hPa | 0V | 00:00:00 | 00:00:00 | 00:00:00 | |
| KE7DJD | 2026-09-03 18:53:27 | 41.40829 | -115.03885 | 64° | 108km/h | 14531m | -7.8m/s | -50.1°C | 0% | 0hPa | 0V | 00:00:00 | 00:00:00 | 00:00:00 | |
| KE7DJD | 2026-09-03 18:53:06 | 41.40635 | -115.04523 | 72° | 99km/h | 14683m | -7.5m/s | -51.2°C | 0% | 0hPa | 0V | 00:00:00 | 00:00:00 | 00:00:00 | |
| KE7DJD | 2026-09-03 18:52:46 | 41.40497 | -115.05120 | 74° | 80km/h | 14844m | -7.7m/s | -51.3°C | 0% | 0hPa | 0V | 00:00:00 | 00:00:00 | 00:00:00 | |
| KE7DJD | 2026-09-03 18:52:24 | 41.40369 | -115.05624 | 68° | 69km/h | 15009m | -7.9m/s | -52.3°C | 0% | 0hPa | 0V | 00:00:00 | 00:00:00 | 00:00:00 | |
| KE7DJD | 2026-09-03 18:51:42 | 41.40126 | -115.06406 | 69° | 47km/h | 15355m | -8.5m/s | -54.3°C | 0% | 0hPa | 0V | 00:00:00 | 00:00:00 | 00:00:00 | |
| KE7DJD | 2026-09-03 18:51:22 | 41.39974 | -115.06735 | 59° | 64km/h | 15533m | -8.6m/s | -54.6°C | 0% | 0hPa | 0V | 00:00:00 | 00:00:00 | 00:00:00 | |
| KE7DJD | 2026-09-03 18:51:01 | 41.39785 | -115.07131 | 61° | 80km/h | 15707m | -8.7m/s | -55.7°C | 0% | 0hPa | 0V | 00:00:00 | 00:00:00 | 00:00:00 | |
| KE7DJD | 2026-09-03 18:50:41 | 41.39575 | -115.07636 | 67° | 89km/h | 15893m | -9.1m/s | -55.0°C | 0% | 0hPa | 0V | 00:00:00 | 00:00:00 | 00:00:00 | |
| KE7DJD | 2026-09-03 18:50:20 | 41.39437 | -115.08165 | 73° | 66km/h | 16076m | -9.2m/s | -54.6°C | 0% | 0hPa | 0V | 00:00:00 | 00:00:00 | 00:00:00 | |
| KE7DJD | 2026-09-03 18:50:00 | 41.39346 | -115.08597 | 66° | 51km/h | 16275m | -10.0m/s | -53.7°C | 0% | 0hPa | 0V | 00:00:00 | 00:00:00 | 00:00:00 | |
| KE7DJD | 2026-09-03 18:49:39 | 41.39200 | -115.08958 | 59° | 60km/h | 16482m | -9.8m/s | -53.0°C | 0% | 0hPa | 0V | 00:00:00 | 00:00:00 | 00:00:00 | |
| KE7DJD | 2026-09-03 18:48:58 | 41.38839 | -115.09604 | 61° | 57km/h | 16879m | -9.8m/s | -51.0°C | 0% | 0hPa | 0V | 00:00:00 | 00:00:00 | 00:00:00 | |
| KE7DJD | 2026-09-03 18:48:38 | 41.38680 | -115.09853 | 55° | 42km/h | 17088m | -9.9m/s | -49.7°C | 0% | 0hPa | 0V | 00:00:00 | 00:00:00 | 00:00:00 | |
| KE7DJD | 2026-09-03 18:48:17 | 41.38546 | -115.10056 | 49° | 35km/h | 17298m | -9.9m/s | -49.4°C | 0% | 0hPa | 0V | 00:00:00 | 00:00:00 | 00:00:00 | |
| KE7DJD | 2026-09-03 18:47:56 | 41.38426 | -115.10216 | 24° | 29km/h | 17518m | -11.1m/s | -48.5°C | 0% | 0hPa | 0V | 00:00:00 | 00:00:00 | 00:00:00 | |
| KE7DJD | 2026-09-03 18:47:36 | 41.38318 | -115.10273 | 26° | 26km/h | 17736m | -11.0m/s | -48.8°C | 0% | 0hPa | 0V | 00:00:00 | 00:00:00 | 00:00:00 | |
| KE7DJD | 2026-09-03 18:47:15 | 41.38198 | -115.10386 | 43° | 29km/h | 17964m | -11.1m/s | -49.0°C | 0% | 0hPa | 0V | 00:00:00 | 00:00:00 | 00:00:00 | |
| KE7DJD | 2026-09-03 18:46:54 | 41.38058 | -115.10531 | 57° | 31km/h | 18205m | -11.1m/s | -49.9°C | 0% | 0hPa | 0V | 00:00:00 | 00:00:00 | 00:00:00 | |
| KE7DJD | 2026-09-03 18:46:33 | 41.37966 | -115.10715 | 66° | 31km/h | 18443m | -11.3m/s | -50.1°C | 0% | 0hPa | 0V | 00:00:00 | 00:00:00 | 00:00:00 | |
| KE7DJD | 2026-09-03 18:46:13 | 41.37901 | -115.10920 | 67° | 29km/h | 18679m | -11.2m/s | -50.8°C | 0% | 0hPa | 0V | 00:00:00 | 00:00:00 | 00:00:00 | |
| KE7DJD | 2026-09-03 18:45:52 | 41.37749 | -115.11020 | 20° | 33km/h | 18931m | -11.8m/s | -49.9°C | 0% | 0hPa | 0V | 00:00:00 | 00:00:00 | 00:00:00 | |
| KE7DJD | 2026-09-03 18:45:31 | 41.37574 | -115.11082 | 18° | 35km/h | 19187m | -12.2m/s | -48.6°C | 0% | 0hPa | 0V | 00:00:00 | 00:00:00 | 00:00:00 | |
| KE7DJD | 2026-09-03 18:45:10 | 41.37456 | -115.11153 | 26° | 18km/h | 19436m | -12.4m/s | -48.4°C | 0% | 0hPa | 0V | 00:00:00 | 00:00:00 | 00:00:00 | |
| KE7DJD | 2026-09-03 18:44:50 | 41.37423 | -115.11118 | 317° | 16km/h | 19705m | -12.6m/s | -48.9°C | 0% | 0hPa | 0V | 00:00:00 | 00:00:00 | 00:00:00 | |
| KE7DJD | 2026-09-03 18:44:29 | 41.37361 | -115.11018 | 296° | 27km/h | 19964m | -13.0m/s | -49.6°C | 0% | 0hPa | 0V | 00:00:00 | 00:00:00 | 00:00:00 | |
| KE7DJD | 2026-09-03 18:44:09 | 41.37266 | -115.10912 | 343° | 24km/h | 20243m | -13.2m/s | -49.0°C | 0% | 0hPa | 0V | 00:00:00 | 00:00:00 | 00:00:00 | |
| KE7DJD | 2026-09-03 18:43:26 | 41.37132 | -115.10853 | 283° | 24km/h | 20820m | -13.9m/s | -48.0°C | 0% | 0hPa | 0V | 00:00:00 | 00:00:00 | 00:00:00 | |
| KE7DJD | 2026-09-03 18:43:06 | 41.37067 | -115.10740 | 312° | 24km/h | 21124m | -14.7m/s | -47.9°C | 0% | 0hPa | 0V | 00:00:00 | 00:00:00 | 00:00:00 | |
| KE7DJD | 2026-09-03 18:42:45 | 41.37023 | -115.10654 | 282° | 26km/h | 21435m | -15.0m/s | -46.9°C | 0% | 0hPa | 0V | 00:00:00 | 00:00:00 | 00:00:00 | |
| KE7DJD | 2026-09-03 18:42:24 | 41.36992 | -115.10561 | 314° | 15km/h | 21741m | -15.1m/s | -48.3°C | 0% | 0hPa | 0V | 00:00:00 | 00:00:00 | 00:00:00 | |
| KE7DJD | 2026-09-03 18:42:04 | 41.36914 | -115.10455 | 329° | 24km/h | 22070m | -15.6m/s | -47.7°C | 0% | 0hPa | 0V | 00:00:00 | 00:00:00 | 00:00:00 | |
| KE7DJD | 2026-09-03 18:41:43 | 41.36864 | -115.10364 | 315° | 13km/h | 22387m | -16.2m/s | -48.6°C | 0% | 0hPa | 0V | 00:00:00 | 00:00:00 | 00:00:00 | |
| KE7DJD | 2026-09-03 18:41:23 | 41.36838 | -115.10216 | 275° | 18km/h | 22730m | -16.6m/s | -47.9°C | 0% | 0hPa | 0V | 00:00:00 | 00:00:00 | 00:00:00 | |
| KE7DJD | 2026-09-03 18:41:02 | 41.36846 | -115.10135 | 219° | 15km/h | 23069m | -17.2m/s | -47.5°C | 0% | 0hPa | 0V | 00:00:00 | 00:00:00 | 00:00:00 | |
| KE7DJD | 2026-09-03 18:40:42 | 41.36843 | -115.10059 | 272° | 7km/h | 23434m | -17.4m/s | -47.1°C | 0% | 0hPa | 0V | 00:00:00 | 00:00:00 | 00:00:00 | |
| KE7DJD | 2026-09-03 18:40:21 | 41.36870 | -115.10004 | 302° | 13km/h | 23788m | -18.7m/s | -45.4°C | 0% | 0hPa | 0V | 00:00:00 | 00:00:00 | 00:00:00 | |
| KE7DJD | 2026-09-03 18:40:01 | 41.36799 | -115.09991 | 320° | 5km/h | 24176m | -18.1m/s | -44.7°C | 0% | 0hPa | 0V | 00:00:00 | 00:00:00 | 00:00:00 | |
| KE7DJD | 2026-09-03 18:39:40 | 41.36852 | -115.09989 | 185° | 18km/h | 24549m | -18.6m/s | -44.5°C | 0% | 0hPa | 0V | 00:00:00 | 00:00:00 | 00:00:00 | |
| KE7DJD | 2026-09-03 18:39:20 | 41.36972 | -115.09888 | 213° | 27km/h | 24956m | -20.2m/s | -44.6°C | 0% | 0hPa | 0V | 00:00:00 | 00:00:00 | 00:00:00 | |
| KE7DJD | 2026-09-03 18:38:59 | 41.37059 | -115.09775 | 234° | 40km/h | 25378m | -20.5m/s | -45.8°C | 0% | 0hPa | 0V | 00:00:00 | 00:00:00 | 00:00:00 | |
| KE7DJD | 2026-09-03 18:38:38 | 41.37090 | -115.09566 | 261° | 31km/h | 25791m | -21.2m/s | -45.2°C | 0% | 0hPa | 0V | 00:00:00 | 00:00:00 | 00:00:00 | |
| KE7DJD | 2026-09-03 18:38:17 | 41.37117 | -115.09338 | 255° | 24km/h | 26244m | -21.7m/s | -45.3°C | 0% | 0hPa | 0V | 00:00:00 | 00:00:00 | 00:00:00 | |
| KE7DJD | 2026-09-03 18:37:57 | 41.37130 | -115.09203 | 328° | 11km/h | 26685m | -23.6m/s | -44.2°C | 0% | 0hPa | 0V | 00:00:00 | 00:00:00 | 00:00:00 | |
| KE7DJD | 2026-09-03 18:37:36 | 41.37149 | -115.09097 | 274° | 31km/h | 27172m | -23.6m/s | -42.2°C | 0% | 0hPa | 0V | 00:00:00 | 00:00:00 | 00:00:00 | |
| KE7DJD | 2026-09-03 18:37:16 | 41.37103 | -115.08879 | 304° | 37km/h | 27662m | -24.4m/s | -40.6°C | 0% | 0hPa | 0V | 00:00:00 | 00:00:00 | 00:00:00 | |
| KE7DJD | 2026-09-03 18:36:56 | 41.37027 | -115.08744 | 304° | 27km/h | 28184m | -25.4m/s | -39.4°C | 0% | 0hPa | 0V | 00:00:00 | 00:00:00 | 00:00:00 | |
| KE7DJD | 2026-09-03 18:36:35 | 41.36916 | -115.08644 | 330° | 22km/h | 28728m | -26.8m/s | -38.7°C | 0% | 0hPa | 0V | 00:00:00 | 00:00:00 | 00:00:00 | |
| KE7DJD | 2026-09-03 18:36:15 | 41.36830 | -115.08575 | 233° | 5km/h | 29271m | -27.8m/s | -37.9°C | 0% | 0hPa | 0V | 00:00:00 | 00:00:00 | 00:00:00 | |
| KE7DJD | 2026-09-03 18:35:54 | 41.36848 | -115.08439 | 278° | 38km/h | 29845m | -28.8m/s | -37.4°C | 0% | 0hPa | 0V | 00:00:00 | 00:00:00 | 00:00:00 | |
| KE7DJD | 2026-09-03 18:35:34 | 41.36787 | -115.08273 | 305° | 26km/h | 30445m | -28.1m/s | -37.5°C | 0% | 0hPa | 0V | 00:00:00 | 00:00:00 | 00:00:00 | |
| KE7DJD | 2026-09-03 18:35:13 | 41.36745 | -115.08137 | 268° | 33km/h | 31021m | -29.9m/s | -35.1°C | 0% | 0hPa | 0V | 00:00:00 | 00:00:00 | 00:00:00 | |
| KE7DJD | 2026-09-03 18:34:51 | 41.36612 | -115.08125 | 310° | 4km/h | 31696m | -38.9m/s | -33.7°C | 0% | 0hPa | 0V | 00:00:00 | 00:00:00 | 00:00:00 | |
| KE7DJD | 2026-09-03 18:34:31 | 41.36610 | -115.08034 | 102° | 5km/h | 31907m | 7.2m/s | -33.0°C | 0% | 0hPa | 0V | 00:00:00 | 00:00:00 | 00:00:00 | |
| KE7DJD | 2026-09-03 18:34:10 | 41.36593 | -115.08025 | 54° | 29km/h | 31789m | 2.3m/s | -33.7°C | 0% | 0hPa | 0V | 00:00:00 | 00:00:00 | 00:00:00 | |
| KE7DJD | 2026-09-03 18:33:49 | 41.36531 | -115.08015 | 338° | 18km/h | 31676m | 9.1m/s | -34.6°C | 0% | 0hPa | 0V | 00:00:00 | 00:00:00 | 00:00:00 | |
| KE7DJD | 2026-09-03 18:33:29 | 41.36425 | -115.08019 | 291° | 31km/h | 31554m | 4.7m/s | -34.8°C | 0% | 0hPa | 0V | 00:00:00 | 00:00:00 | 00:00:00 | |
| KE7DJD | 2026-09-03 18:33:08 | 41.36312 | -115.07945 | 18° | 7km/h | 31435m | 7.0m/s | -35.5°C | 0% | 0hPa | 0V | 00:00:00 | 00:00:00 | 00:00:00 | |
| KE7DJD | 2026-09-03 18:32:48 | 41.36199 | -115.07906 | 33° | 29km/h | 31309m | 3.0m/s | -35.8°C | 0% | 0hPa | 0V | 00:00:00 | 00:00:00 | 00:00:00 | |
| KE7DJD | 2026-09-03 18:32:27 | 41.36084 | -115.07847 | 285° | 27km/h | 31184m | 8.2m/s | -35.3°C | 0% | 0hPa | 0V | 00:00:00 | 00:00:00 | 00:00:00 | |
| KE7DJD | 2026-09-03 18:32:05 | 41.35999 | -115.07719 | 39° | 27km/h | 31044m | 7.2m/s | -34.6°C | 0% | 0hPa | 0V | 00:00:00 | 00:00:00 | 00:00:00 | |
| KE7DJD | 2026-09-03 18:31:44 | 41.35977 | -115.07606 | 256° | 11km/h | 30919m | 5.6m/s | -35.2°C | 0% | 0hPa | 0V | 00:00:00 | 00:00:00 | 00:00:00 | |
| KE7DJD | 2026-09-03 18:31:24 | 41.35956 | -115.07470 | 300° | 44km/h | 30788m | 4.0m/s | -35.7°C | 0% | 0hPa | 0V | 00:00:00 | 00:00:00 | 00:00:00 |